Terminal Aerodrome Forecast
Issued by NWS

Home | Current Version | Previous Version | Text Only | Print | Product List | Glossary On
Versions: 1 2 3 4 5 6 7 8 9 10 11 12 13 14 15 16 17 18 19 20
000
FTUS43 KAPX 210525
TAFPLN
TAF
KPLN 210525Z 2106/2206 VRB03KT 4SM BR SKC
     FM211300 VRB03KT P6SM FEW250
     FM211700 26007KT P6SM SCT120
     FM212000 27008KT P6SM BKN110
     FM220000 30004KT P6SM SCT110
     FM220200 00000KT P6SM SCT140=

USA.gov is the U.S. government's official web portal to all federal, state and local government web resources and services.